createdAt,value
2022-09-12T00:00:13.122Z,19.99
2022-09-12T00:01:15.792Z,19.97
2022-09-12T00:02:17.517Z,19.96
2022-09-12T00:03:19.029Z,19.95
2022-09-12T00:04:20.502Z,19.94
2022-09-12T00:05:22.067Z,19.93
2022-09-12T00:06:30.743Z,19.92
2022-09-12T00:07:32.184Z,19.89
2022-09-12T00:08:33.663Z,19.90
2022-09-12T00:09:35.789Z,19.88
2022-09-12T00:10:40.342Z,19.87
2022-09-12T00:11:42.985Z,19.88
2022-09-12T00:12:44.444Z,19.88
2022-09-12T00:13:45.909Z,19.86
2022-09-12T00:14:47.420Z,19.85
2022-09-12T00:15:48.968Z,19.84
2022-09-12T00:16:50.503Z,19.83
2022-09-12T00:17:52.006Z,19.82
2022-09-12T00:18:53.741Z,19.82
2022-09-12T00:19:56.068Z,19.80
2022-09-12T00:20:57.560Z,19.80
2022-09-12T00:21:59.031Z,19.79
2022-09-12T00:23:00.827Z,19.77
2022-09-12T00:24:02.412Z,19.77
2022-09-12T00:25:04.044Z,19.74
2022-09-12T00:26:06.202Z,19.72
2022-09-12T00:27:07.832Z,19.70
2022-09-12T00:28:09.345Z,19.68
2022-09-12T00:29:20.096Z,19.68
2022-09-12T00:30:21.581Z,19.66
2022-09-12T00:31:26.463Z,19.65
2022-09-12T00:32:28.024Z,19.64
2022-09-12T00:33:29.483Z,19.63
2022-09-12T00:34:30.940Z,19.63
2022-09-12T00:35:32.407Z,19.61
2022-09-12T00:36:34.215Z,19.49
2022-09-12T00:37:35.667Z,19.58
2022-09-12T00:38:38.786Z,19.58
2022-09-12T00:39:40.385Z,19.55
2022-09-12T00:40:42.374Z,19.55
2022-09-12T00:41:44.014Z,19.53
2022-09-12T00:42:45.459Z,19.53
2022-09-12T00:43:48.127Z,19.50
2022-09-12T00:44:50.655Z,19.49
2022-09-12T00:45:52.189Z,19.47
2022-09-12T00:46:57.958Z,19.47
2022-09-12T00:48:00.798Z,19.45
2022-09-12T00:49:06.343Z,19.45
2022-09-12T00:50:08.999Z,19.44
2022-09-12T00:51:10.474Z,19.43
2022-09-12T00:52:12.837Z,19.42
2022-09-12T00:53:14.271Z,19.43
2022-09-12T00:54:17.255Z,19.40
2022-09-12T00:55:21.615Z,19.41
2022-09-12T00:56:23.152Z,19.39
2022-09-12T00:57:25.626Z,19.38
2022-09-12T00:58:30.541Z,19.38
2022-09-12T00:59:32.773Z,19.36
2022-09-12T01:00:34.531Z,19.35
2022-09-12T01:01:36.070Z,19.34
2022-09-12T01:02:37.602Z,19.34
2022-09-12T01:03:39.177Z,19.32
2022-09-12T01:04:40.612Z,19.32
2022-09-12T01:05:44.498Z,19.31
2022-09-12T01:06:45.976Z,19.31
2022-09-12T01:07:50.042Z,19.30
2022-09-12T01:08:51.511Z,19.30
2022-09-12T01:09:52.986Z,19.29
2022-09-12T01:10:54.459Z,19.29
2022-09-12T01:11:55.948Z,19.28
2022-09-12T01:12:57.402Z,19.28
2022-09-12T01:13:59.266Z,19.27
2022-09-12T01:15:00.796Z,19.27
2022-09-12T01:16:03.034Z,19.26
2022-09-12T01:17:07.006Z,19.25
2022-09-12T01:18:19.005Z,19.25
2022-09-12T01:19:20.788Z,19.24
2022-09-12T01:20:40.742Z,19.23
2022-09-12T01:21:47.619Z,19.22
2022-09-12T01:23:15.137Z,19.21
2022-09-12T01:24:37.904Z,19.20
2022-09-12T01:25:57.819Z,19.18
2022-09-12T01:27:17.750Z,19.13
2022-09-12T01:28:22.286Z,19.14
2022-09-12T01:29:35.721Z,19.13
2022-09-12T01:30:51.498Z,19.13
2022-09-12T01:32:01.724Z,19.09
2022-09-12T01:33:09.182Z,19.09
2022-09-12T01:34:17.178Z,19.07
2022-09-12T01:35:25.435Z,19.07
2022-09-12T01:36:34.501Z,19.06
2022-09-12T01:37:35.905Z,19.05
2022-09-12T01:38:47.460Z,19.04
2022-09-12T01:39:58.001Z,19.03
2022-09-12T01:41:12.322Z,18.99
2022-09-12T01:42:13.727Z,18.96
2022-09-12T01:43:18.335Z,18.96
2022-09-12T01:44:25.426Z,18.95
2022-09-12T01:45:29.126Z,18.95
2022-09-12T01:46:32.043Z,18.95
2022-09-12T01:47:39.727Z,18.95
2022-09-12T01:48:51.818Z,18.93
2022-09-12T01:50:15.095Z,18.93
2022-09-12T01:51:21.799Z,18.92
2022-09-12T01:52:25.454Z,18.91
2022-09-12T01:53:27.782Z,18.90
2022-09-12T01:54:31.704Z,18.90
2022-09-12T01:55:34.396Z,18.89
2022-09-12T01:56:36.460Z,18.88
2022-09-12T01:57:41.176Z,18.88
2022-09-12T01:58:43.684Z,18.86
2022-09-12T01:59:46.036Z,18.87
2022-09-12T02:00:59.899Z,18.86
2022-09-12T02:02:03.672Z,18.85
2022-09-12T02:03:09.939Z,18.84
2022-09-12T02:04:11.334Z,18.84
2022-09-12T02:05:14.885Z,18.84
2022-09-12T02:06:20.624Z,18.83
2022-09-12T02:07:32.816Z,18.81
2022-09-12T02:08:41.826Z,18.81
2022-09-12T02:09:49.396Z,18.80
2022-09-12T02:10:52.413Z,18.79
2022-09-12T02:11:54.086Z,18.78
2022-09-12T02:12:55.624Z,18.78
2022-09-12T02:13:58.931Z,18.77
2022-09-12T02:15:02.518Z,18.76
2022-09-12T02:16:10.681Z,18.76
2022-09-12T02:17:13.872Z,18.74
2022-09-12T02:18:17.715Z,18.73
2022-09-12T02:19:20.317Z,18.73
2022-09-12T02:20:46.917Z,18.72
2022-09-12T02:21:50.346Z,18.72
2022-09-12T02:22:51.906Z,18.70
2022-09-12T02:23:57.510Z,18.70
2022-09-12T02:24:59.575Z,18.69
2022-09-12T02:26:02.344Z,18.67
2022-09-12T02:27:05.220Z,18.67
2022-09-12T02:28:08.171Z,18.66
2022-09-12T02:29:09.668Z,18.64
2022-09-12T02:30:14.305Z,18.63
2022-09-12T02:31:29.168Z,18.63
2022-09-12T02:32:32.598Z,18.61
2022-09-12T02:33:40.163Z,18.61
2022-09-12T02:34:49.545Z,18.60
2022-09-12T02:35:55.838Z,18.59
2022-09-12T02:37:06.092Z,18.58
2022-09-12T02:38:09.089Z,18.58
2022-09-12T02:39:10.543Z,18.56
2022-09-12T02:40:12.263Z,18.55
2022-09-12T02:41:14.603Z,18.53
2022-09-12T02:42:16.026Z,18.52
2022-09-12T02:43:17.523Z,18.52
2022-09-12T02:44:19.127Z,18.50
2022-09-12T02:45:20.644Z,18.51
2022-09-12T02:46:23.794Z,18.50
2022-09-12T02:47:27.443Z,18.49
2022-09-12T02:48:32.050Z,18.48
2022-09-12T02:49:33.522Z,18.48
2022-09-12T02:50:35.138Z,18.47
2022-09-12T02:51:36.846Z,18.45
2022-09-12T02:52:38.344Z,18.42
2022-09-12T02:53:39.818Z,18.42
2022-09-12T02:54:41.310Z,18.41
2022-09-12T02:55:42.798Z,18.40
2022-09-12T02:56:44.559Z,18.39
2022-09-12T02:57:45.991Z,18.40
2022-09-12T02:58:47.559Z,18.38
2022-09-12T02:59:49.175Z,18.37
2022-09-12T03:01:06.272Z,18.37
2022-09-12T03:02:07.967Z,18.37
2022-09-12T03:03:14.346Z,18.36
2022-09-12T03:04:34.429Z,18.35
2022-09-12T03:05:41.175Z,18.34
2022-09-12T03:06:45.229Z,18.32
2022-09-12T03:07:49.812Z,18.31
2022-09-12T03:08:57.678Z,18.30
2022-09-12T03:10:02.092Z,18.30
2022-09-12T03:11:12.566Z,18.29
2022-09-12T03:12:24.467Z,18.28
2022-09-12T03:13:29.019Z,18.28
2022-09-12T03:15:09.082Z,18.26
2022-09-12T03:16:39.877Z,18.24
2022-09-12T03:17:47.175Z,18.23
2022-09-12T03:19:06.464Z,18.22
2022-09-12T03:20:15.122Z,18.20
2022-09-12T03:21:35.402Z,18.19
2022-09-12T03:22:51.959Z,18.18
2022-09-12T03:24:32.974Z,18.16
2022-09-12T03:25:38.891Z,18.15
2022-09-12T03:26:44.845Z,18.15
2022-09-12T03:27:48.055Z,18.14
2022-09-12T03:28:49.535Z,18.13
2022-09-12T03:29:51.350Z,18.12
2022-09-12T03:30:54.647Z,18.12
2022-09-12T03:31:56.944Z,18.11
2022-09-12T03:32:58.374Z,18.10
2022-09-12T03:34:00.190Z,18.09
2022-09-12T03:35:01.691Z,18.09
2022-09-12T03:36:03.122Z,18.07
2022-09-12T03:37:04.696Z,18.07
2022-09-12T03:38:08.025Z,18.05
2022-09-12T03:39:09.471Z,18.04
2022-09-12T03:40:11.835Z,18.03
2022-09-12T03:41:13.326Z,18.00
2022-09-12T03:42:14.815Z,17.99
2022-09-12T03:43:16.339Z,17.98
2022-09-12T03:44:17.934Z,17.98
2022-09-12T03:45:19.514Z,17.96
2022-09-12T03:46:20.946Z,17.97
2022-09-12T03:47:22.388Z,17.96
2022-09-12T03:48:23.863Z,17.96
2022-09-12T03:49:25.301Z,17.94
2022-09-12T03:50:26.802Z,17.94
2022-09-12T03:51:28.844Z,17.94
2022-09-12T03:52:30.474Z,17.94
2022-09-12T03:53:31.916Z,17.93
2022-09-12T03:54:33.454Z,17.91
2022-09-12T03:55:35.030Z,17.91
2022-09-12T03:56:37.071Z,17.90
2022-09-12T03:57:38.515Z,17.90
2022-09-12T03:58:40.098Z,17.89
2022-09-12T03:59:41.596Z,17.87
2022-09-12T04:00:44.312Z,17.87
2022-09-12T04:01:45.850Z,17.87
2022-09-12T04:02:47.310Z,17.86
2022-09-12T04:03:50.023Z,17.86
2022-09-12T04:04:51.528Z,17.84
2022-09-12T04:05:53.019Z,17.83
2022-09-12T04:06:54.532Z,17.82
2022-09-12T04:07:56.025Z,17.83
2022-09-12T04:08:57.532Z,17.82
2022-09-12T04:09:58.970Z,17.82
2022-09-12T04:11:06.591Z,17.80
2022-09-12T04:12:08.131Z,17.81
2022-09-12T04:13:09.570Z,17.80
2022-09-12T04:14:10.991Z,17.79
2022-09-12T04:15:12.534Z,17.79
2022-09-12T04:16:14.278Z,17.79
2022-09-12T04:17:15.782Z,17.78
2022-09-12T04:18:17.291Z,17.77
2022-09-12T04:19:18.720Z,17.78
2022-09-12T04:20:20.498Z,17.77
2022-09-12T04:21:22.178Z,17.77
2022-09-12T04:22:23.835Z,17.75
2022-09-12T04:23:25.254Z,17.75
2022-09-12T04:24:26.724Z,17.75
2022-09-12T04:25:28.452Z,17.74
2022-09-12T04:26:31.782Z,17.65
2022-09-12T04:27:33.263Z,17.74
2022-09-12T04:28:35.262Z,17.74
2022-09-12T04:29:36.795Z,17.72
2022-09-12T04:30:38.399Z,17.70
2022-09-12T04:31:39.878Z,17.70
2022-09-12T04:32:41.450Z,17.68
2022-09-12T04:33:42.951Z,17.67
2022-09-12T04:34:44.416Z,17.67
2022-09-12T04:35:45.882Z,17.66
2022-09-12T04:36:47.351Z,17.65
2022-09-12T04:37:48.780Z,17.64
2022-09-12T04:38:50.235Z,17.62
2022-09-12T04:39:51.841Z,17.62
2022-09-12T04:40:53.660Z,17.61
2022-09-12T04:41:55.239Z,17.59
2022-09-12T04:42:56.698Z,17.60
2022-09-12T04:43:58.857Z,17.58
2022-09-12T04:45:00.354Z,17.58
2022-09-12T04:46:07.971Z,17.56
2022-09-12T04:47:09.475Z,17.55
2022-09-12T04:48:10.950Z,17.53
2022-09-12T04:49:12.795Z,17.53
2022-09-12T04:50:14.928Z,17.52
2022-09-12T04:51:17.258Z,17.52
2022-09-12T04:52:18.688Z,17.51
2022-09-12T04:53:20.186Z,17.50
2022-09-12T04:54:21.603Z,17.49
2022-09-12T04:55:25.540Z,17.49
2022-09-12T04:56:27.310Z,17.48
2022-09-12T04:57:28.730Z,17.47
2022-09-12T04:58:30.969Z,17.47
2022-09-12T04:59:32.391Z,17.47
2022-09-12T05:00:34.867Z,17.47
2022-09-12T05:01:36.469Z,17.46
2022-09-12T05:02:38.263Z,17.45
2022-09-12T05:03:40.142Z,17.44
2022-09-12T05:04:41.631Z,17.44
2022-09-12T05:05:43.071Z,17.43
2022-09-12T05:06:44.635Z,17.43
2022-09-12T05:07:46.110Z,17.42
2022-09-12T05:08:47.620Z,17.41
2022-09-12T05:09:49.199Z,17.41
2022-09-12T05:10:50.784Z,17.41
2022-09-12T05:12:07.630Z,17.40
2022-09-12T05:13:09.527Z,17.40
2022-09-12T05:14:11.211Z,17.39
2022-09-12T05:15:12.730Z,17.39
2022-09-12T05:16:15.353Z,17.39
2022-09-12T05:17:16.924Z,17.38
2022-09-12T05:18:18.400Z,17.38
2022-09-12T05:19:19.924Z,17.37
2022-09-12T05:20:21.521Z,17.35
2022-09-12T05:21:23.318Z,17.35
2022-09-12T05:22:25.214Z,17.35
2022-09-12T05:23:27.685Z,17.34
2022-09-12T05:24:29.228Z,17.34
2022-09-12T05:25:30.732Z,17.33
2022-09-12T05:26:32.226Z,17.33
2022-09-12T05:27:33.704Z,17.34
2022-09-12T05:28:35.797Z,17.33
2022-09-12T05:29:37.306Z,17.34
2022-09-12T05:30:38.739Z,17.33
2022-09-12T05:31:40.306Z,17.34
2022-09-12T05:32:41.805Z,17.34
2022-09-12T05:33:43.979Z,17.34
2022-09-12T05:34:45.615Z,17.33
2022-09-12T05:35:50.958Z,17.33
2022-09-12T05:36:52.442Z,17.34
2022-09-12T05:37:53.956Z,17.34
2022-09-12T05:38:55.528Z,17.35
2022-09-12T05:39:59.950Z,17.35
2022-09-12T05:41:06.198Z,17.36
2022-09-12T05:42:07.811Z,17.36
2022-09-12T05:43:10.460Z,17.36
2022-09-12T05:44:12.165Z,17.39
2022-09-12T05:45:14.880Z,17.38
2022-09-12T05:46:17.374Z,17.40
2022-09-12T05:47:19.190Z,17.41
2022-09-12T05:48:20.678Z,17.42
2022-09-12T05:49:22.207Z,17.42
2022-09-12T05:50:23.719Z,17.43
2022-09-12T05:51:26.521Z,17.45
2022-09-12T05:52:27.982Z,17.46
2022-09-12T05:53:30.065Z,17.48
2022-09-12T05:54:31.907Z,17.48
2022-09-12T05:55:33.369Z,17.50
2022-09-12T05:56:38.846Z,17.51
2022-09-12T05:57:40.362Z,17.52
2022-09-12T05:58:42.961Z,17.56
2022-09-12T05:59:45.259Z,17.57
2022-09-12T06:00:46.726Z,17.58
2022-09-12T06:01:48.654Z,17.60
2022-09-12T06:02:53.515Z,17.62
2022-09-12T06:03:55.471Z,17.64
2022-09-12T06:04:56.937Z,17.65
2022-09-12T06:06:01.165Z,17.67
2022-09-12T06:07:02.679Z,17.69
2022-09-12T06:08:04.148Z,17.71
2022-09-12T06:09:05.932Z,17.73
2022-09-12T06:10:07.487Z,17.74
2022-09-12T06:11:09.688Z,17.77
2022-09-12T06:12:11.600Z,17.78
2022-09-12T06:13:13.918Z,17.79
2022-09-12T06:14:15.889Z,17.82
2022-09-12T06:15:18.307Z,17.84
2022-09-12T06:16:20.939Z,17.87
2022-09-12T06:17:22.712Z,17.89
2022-09-12T06:18:24.150Z,17.91
2022-09-12T06:19:27.876Z,17.93
2022-09-12T06:20:29.365Z,17.95
2022-09-12T06:21:31.304Z,17.97
2022-09-12T06:22:33.017Z,17.99
2022-09-12T06:23:34.625Z,18.02
2022-09-12T06:24:36.266Z,18.03
2022-09-12T06:25:37.730Z,18.06
2022-09-12T06:26:39.464Z,18.07
2022-09-12T06:27:40.986Z,18.09
2022-09-12T06:28:42.661Z,18.11
2022-09-12T06:29:44.132Z,18.13
2022-09-12T06:30:45.620Z,18.15
2022-09-12T06:31:47.075Z,18.18
2022-09-12T06:32:48.569Z,18.21
2022-09-12T06:33:50.486Z,18.23
2022-09-12T06:34:51.971Z,18.27
2022-09-12T06:35:53.420Z,18.30
2022-09-12T06:36:54.873Z,18.32
2022-09-12T06:37:56.371Z,18.34
2022-09-12T06:39:01.512Z,18.37
2022-09-12T06:40:03.255Z,18.42
2022-09-12T06:41:05.346Z,18.43
2022-09-12T06:42:06.817Z,18.45
2022-09-12T06:43:08.980Z,18.48
2022-09-12T06:44:12.184Z,18.51
2022-09-12T06:45:16.496Z,18.56
2022-09-12T06:46:18.975Z,18.60
2022-09-12T06:47:21.148Z,18.63
2022-09-12T06:48:22.694Z,18.65
2022-09-12T06:49:24.150Z,18.69
2022-09-12T06:50:25.639Z,18.73
2022-09-12T06:51:27.532Z,18.76
2022-09-12T06:52:29.232Z,18.80
2022-09-12T06:53:30.898Z,18.84
2022-09-12T06:54:32.353Z,18.87
2022-09-12T06:55:33.876Z,18.91
2022-09-12T06:56:35.952Z,18.94
2022-09-12T06:57:38.858Z,18.97
2022-09-12T06:58:40.575Z,19.01
2022-09-12T06:59:42.475Z,19.05
2022-09-12T07:00:43.927Z,19.09
2022-09-12T07:01:45.571Z,19.14
2022-09-12T07:02:47.105Z,19.18
2022-09-12T07:03:49.724Z,19.22
2022-09-12T07:04:51.803Z,19.27
2022-09-12T07:05:53.302Z,19.30
2022-09-12T07:06:54.757Z,19.34
2022-09-12T07:07:56.214Z,19.37
2022-09-12T07:08:58.386Z,19.42
2022-09-12T07:10:00.343Z,19.46
2022-09-12T07:11:08.308Z,19.51
2022-09-12T07:12:09.761Z,19.56
2022-09-12T07:13:11.667Z,19.59
2022-09-12T07:14:13.911Z,19.64
2022-09-12T07:15:16.459Z,19.68
2022-09-12T07:16:19.831Z,19.73
2022-09-12T07:17:21.686Z,19.77
2022-09-12T07:18:23.667Z,19.82
2022-09-12T07:19:25.131Z,19.87
2022-09-12T07:20:26.582Z,19.91
2022-09-12T07:21:28.143Z,19.95
2022-09-12T07:22:29.597Z,19.99
2022-09-12T07:23:31.070Z,20.04
2022-09-12T07:24:32.491Z,20.09
2022-09-12T07:25:33.968Z,20.13
2022-09-12T07:26:35.773Z,20.17
2022-09-12T07:27:37.797Z,20.21
2022-09-12T07:28:39.656Z,20.25
2022-09-12T07:29:41.271Z,20.28
2022-09-12T07:30:42.755Z,20.31
2022-09-12T07:31:44.610Z,20.35
2022-09-12T07:32:46.104Z,20.39
2022-09-12T07:33:51.245Z,20.42
2022-09-12T07:34:55.736Z,20.47
2022-09-12T07:36:00.853Z,20.50
2022-09-12T07:37:02.395Z,20.54
2022-09-12T07:38:04.094Z,20.57
2022-09-12T07:39:05.961Z,20.60
2022-09-12T07:40:07.716Z,20.66
2022-09-12T07:41:16.920Z,20.70
2022-09-12T07:42:18.506Z,20.75
2022-09-12T07:43:19.979Z,20.80
2022-09-12T07:44:22.098Z,20.85
2022-09-12T07:45:23.560Z,20.91
2022-09-12T07:46:25.451Z,20.95
2022-09-12T07:47:26.882Z,21.00
2022-09-12T07:48:28.610Z,21.08
2022-09-12T07:49:30.595Z,21.13
2022-09-12T07:50:33.486Z,21.19
2022-09-12T07:51:34.959Z,21.24
2022-09-12T07:52:36.832Z,21.29
2022-09-12T07:53:39.020Z,21.35
2022-09-12T07:54:40.467Z,21.41
2022-09-12T07:55:41.979Z,21.45
2022-09-12T07:56:43.502Z,21.53
2022-09-12T07:57:45.015Z,21.57
2022-09-12T07:58:46.560Z,21.61
2022-09-12T07:59:52.875Z,21.67
2022-09-12T08:00:54.989Z,21.72
2022-09-12T08:01:56.435Z,21.77
2022-09-12T08:02:57.970Z,21.84
2022-09-12T08:03:59.582Z,21.89
2022-09-12T08:05:01.046Z,21.95
2022-09-12T08:06:12.208Z,21.99
2022-09-12T08:07:13.717Z,22.04
2022-09-12T08:08:15.179Z,22.09
2022-09-12T08:09:17.538Z,22.18
2022-09-12T08:10:19.016Z,22.24
2022-09-12T08:11:20.807Z,22.29
2022-09-12T08:12:22.321Z,22.37
2022-09-12T08:13:24.534Z,22.43
2022-09-12T08:14:26.035Z,22.48
2022-09-12T08:15:27.582Z,22.54
2022-09-12T08:16:30.222Z,22.61
2022-09-12T08:17:31.682Z,22.67
2022-09-12T08:18:33.237Z,22.70
2022-09-12T08:19:34.759Z,22.73
2022-09-12T08:20:36.217Z,22.79
2022-09-12T08:21:37.654Z,22.85
2022-09-12T08:22:40.708Z,22.87
2022-09-12T08:23:42.780Z,22.94
2022-09-12T08:24:44.551Z,23.01
2022-09-12T08:25:46.125Z,23.07
2022-09-12T08:26:47.622Z,23.15
2022-09-12T08:27:49.206Z,23.15
2022-09-12T08:28:50.744Z,23.31
2022-09-12T08:29:53.737Z,23.29
2022-09-12T08:30:56.179Z,23.46
2022-09-12T08:31:57.727Z,23.54
2022-09-12T08:32:59.150Z,23.60
2022-09-12T08:34:01.081Z,23.68
2022-09-12T08:35:02.631Z,23.76
2022-09-12T08:36:05.541Z,23.84
2022-09-12T08:37:07.045Z,23.89
2022-09-12T08:38:08.482Z,23.95
2022-09-12T08:39:11.550Z,24.01
2022-09-12T08:40:16.184Z,24.10
2022-09-12T08:41:28.157Z,24.18
2022-09-12T08:42:53.300Z,24.27
2022-09-12T08:43:57.717Z,24.32
2022-09-12T08:45:02.234Z,24.42
2022-09-12T08:46:06.996Z,24.52
2022-09-12T08:47:11.331Z,24.56
2022-09-12T08:48:12.851Z,24.62
2022-09-12T08:49:15.483Z,24.68
2022-09-12T08:50:18.389Z,24.80
2022-09-12T08:51:19.854Z,24.82
2022-09-12T08:52:24.383Z,24.87
2022-09-12T08:53:25.852Z,25.00
2022-09-12T08:54:29.093Z,25.10
2022-09-12T08:55:33.607Z,25.13
2022-09-12T08:56:36.322Z,25.21
2022-09-12T08:57:37.810Z,25.31
2022-09-12T08:58:39.907Z,25.42
2022-09-12T08:59:42.468Z,25.46
2022-09-12T09:01:02.860Z,25.55
2022-09-12T09:02:04.549Z,25.66
2022-09-12T09:03:13.983Z,25.73
2022-09-12T09:04:28.546Z,25.85
2022-09-12T09:05:51.364Z,25.95
2022-09-12T09:06:52.777Z,26.08
2022-09-12T09:08:06.374Z,26.16
2022-09-12T09:09:13.646Z,26.24
2022-09-12T09:10:26.315Z,26.28
2022-09-12T09:11:27.762Z,26.42
2022-09-12T09:12:32.147Z,26.52
2022-09-12T09:13:56.802Z,26.62
2022-09-12T09:15:13.557Z,26.70
2022-09-12T09:16:23.990Z,26.78
2022-09-12T09:17:28.304Z,26.82
2022-09-12T09:18:31.663Z,26.92
2022-09-12T09:19:34.635Z,27.02
2022-09-12T09:20:39.962Z,27.08
2022-09-12T09:21:43.177Z,27.13
2022-09-12T09:22:48.902Z,27.20
2022-09-12T09:23:51.106Z,27.30
2022-09-12T09:24:53.626Z,27.37
2022-09-12T09:25:55.051Z,27.41
2022-09-12T09:27:23.623Z,27.48
2022-09-12T09:28:29.223Z,27.56
2022-09-12T09:29:34.231Z,27.64
2022-09-12T09:30:35.951Z,27.71
2022-09-12T09:31:38.153Z,27.79
2022-09-12T09:32:40.918Z,27.88
2022-09-12T09:33:42.366Z,27.97
2022-09-12T09:34:43.850Z,28.07
2022-09-12T09:35:45.780Z,28.19
2022-09-12T09:36:49.474Z,28.29
2022-09-12T09:38:08.811Z,28.36
2022-09-12T09:39:25.355Z,28.40
2022-09-12T09:40:28.224Z,28.42
2022-09-12T09:41:32.389Z,28.41
2022-09-12T09:42:54.005Z,28.49
2022-09-12T09:43:56.228Z,28.58
2022-09-12T09:44:58.747Z,28.63
2022-09-12T09:46:00.570Z,28.67
2022-09-12T09:47:02.139Z,28.72
2022-09-12T09:48:08.158Z,28.80
2022-09-12T09:49:11.403Z,28.81
2022-09-12T09:50:14.319Z,28.87
2022-09-12T09:51:21.388Z,28.93
2022-09-12T09:52:25.246Z,29.02
2022-09-12T09:53:32.328Z,29.10
2022-09-12T09:54:35.870Z,29.17
2022-09-12T09:55:38.819Z,29.25
2022-09-12T09:56:40.665Z,29.37
2022-09-12T09:57:42.830Z,29.47
2022-09-12T09:58:44.367Z,29.56
2022-09-12T09:59:45.824Z,29.67
2022-09-12T10:00:47.835Z,29.77
2022-09-12T10:01:55.070Z,29.85
2022-09-12T10:03:13.159Z,29.97
2022-09-12T10:04:22.123Z,30.04
2022-09-12T10:05:23.906Z,30.13
2022-09-12T10:06:34.420Z,30.15
2022-09-12T10:07:36.067Z,30.26
2022-09-12T10:08:37.636Z,30.31
2022-09-12T10:09:39.163Z,30.30
2022-09-12T10:10:52.482Z,30.24
2022-09-12T10:11:54.423Z,30.16
2022-09-12T10:13:10.133Z,30.23
2022-09-12T10:14:27.725Z,30.27
2022-09-12T10:15:30.523Z,30.36
2022-09-12T10:16:32.889Z,30.45
2022-09-12T10:17:42.410Z,30.50
2022-09-12T10:18:43.866Z,30.55
2022-09-12T10:19:52.650Z,30.61
2022-09-12T10:21:01.799Z,30.66
2022-09-12T10:22:03.839Z,30.67
2022-09-12T10:23:43.795Z,30.75
2022-09-12T10:24:48.820Z,30.79
2022-09-12T10:25:53.850Z,30.81
2022-09-12T10:26:57.070Z,30.82
2022-09-12T10:27:59.298Z,30.85
2022-09-12T10:29:03.358Z,30.93
2022-09-12T10:30:20.077Z,31.00
2022-09-12T10:31:29.550Z,31.05
2022-09-12T10:32:40.665Z,31.08
2022-09-12T10:33:43.346Z,31.01
2022-09-12T10:34:45.058Z,30.91
2022-09-12T10:35:47.879Z,30.80
2022-09-12T10:36:49.385Z,30.78
2022-09-12T10:37:59.862Z,30.79
2022-09-12T10:39:01.388Z,30.85
2022-09-12T10:40:03.927Z,30.86
2022-09-12T10:41:09.610Z,30.97
2022-09-12T10:42:12.236Z,31.10
2022-09-12T10:43:25.627Z,31.20
2022-09-12T10:44:28.239Z,31.33
2022-09-12T10:45:29.692Z,31.42
2022-09-12T10:46:31.230Z,31.55
2022-09-12T10:47:32.700Z,31.64
2022-09-12T10:48:35.608Z,31.71
2022-09-12T10:49:40.099Z,31.81
2022-09-12T10:50:42.204Z,31.88
2022-09-12T10:51:43.681Z,32.05
2022-09-12T10:52:45.175Z,32.16
2022-09-12T10:53:46.983Z,32.27
2022-09-12T10:54:48.836Z,32.36
2022-09-12T10:56:02.290Z,32.42
2022-09-12T10:57:22.311Z,32.57
2022-09-12T10:58:29.009Z,32.65
2022-09-12T10:59:31.290Z,32.70
2022-09-12T11:00:33.627Z,32.75
2022-09-12T11:01:37.278Z,32.78
2022-09-12T11:02:51.821Z,32.81
2022-09-12T11:03:59.656Z,32.88
2022-09-12T11:05:10.375Z,32.89
2022-09-12T11:06:11.824Z,32.77
2022-09-12T11:07:17.522Z,32.68
2022-09-12T11:08:21.887Z,32.70
2022-09-12T11:09:38.655Z,32.67
2022-09-12T11:10:57.871Z,32.61
2022-09-12T11:12:02.408Z,32.62
2022-09-12T11:13:06.706Z,32.52
2022-09-12T11:14:13.595Z,32.47
2022-09-12T11:15:30.308Z,32.46
2022-09-12T11:16:35.022Z,32.26
2022-09-12T11:17:55.372Z,32.24
2022-09-12T11:19:15.607Z,32.15
2022-09-12T11:20:35.879Z,32.04
2022-09-12T11:21:47.242Z,31.74
2022-09-12T11:22:51.271Z,31.48
2022-09-12T11:24:05.773Z,31.47
2022-09-12T11:25:27.659Z,31.47
2022-09-12T11:26:47.126Z,31.44
2022-09-12T11:27:57.486Z,31.33
2022-09-12T11:29:17.310Z,31.26
2022-09-12T11:30:18.828Z,31.15
2022-09-12T11:31:39.011Z,31.11
2022-09-12T11:32:49.840Z,31.06
2022-09-12T11:33:56.336Z,31.01
2022-09-12T11:35:17.600Z,30.94
2022-09-12T11:36:25.155Z,30.89
2022-09-12T11:37:38.727Z,30.92
2022-09-12T11:38:48.024Z,30.89
2022-09-12T11:39:53.462Z,30.88
2022-09-12T11:40:59.559Z,30.88
2022-09-12T11:42:02.289Z,30.88
2022-09-12T11:43:06.758Z,30.88
2022-09-12T11:44:11.125Z,30.88
2022-09-12T11:45:17.514Z,30.82
2022-09-12T11:46:24.979Z,30.73
2022-09-12T11:47:26.415Z,30.67
2022-09-12T11:48:48.449Z,30.65
2022-09-12T11:49:50.422Z,30.44
2022-09-12T11:50:52.281Z,30.40
2022-09-12T11:52:12.099Z,30.31
2022-09-12T11:53:22.014Z,30.24
2022-09-12T11:54:23.455Z,30.18
2022-09-12T11:55:25.891Z,30.06
2022-09-12T11:56:27.439Z,29.99
2022-09-12T11:57:29.003Z,29.79
2022-09-12T11:58:30.502Z,29.74
2022-09-12T11:59:52.224Z,29.74
2022-09-12T12:00:54.922Z,29.71
2022-09-12T12:01:59.157Z,29.76
2022-09-12T12:03:03.378Z,29.79
2022-09-12T12:04:07.174Z,29.81
2022-09-12T12:05:22.014Z,29.83
2022-09-12T12:06:33.527Z,29.84
2022-09-12T12:07:41.150Z,29.83
2022-09-12T12:08:44.947Z,29.86
2022-09-12T12:09:48.206Z,29.83
2022-09-12T12:10:59.761Z,29.83
2022-09-12T12:12:02.463Z,29.83
2022-09-12T12:13:05.595Z,29.82
2022-09-12T12:14:15.979Z,29.84
2022-09-12T12:15:17.474Z,29.87
2022-09-12T12:16:23.412Z,29.89
2022-09-12T12:17:25.262Z,29.91
2022-09-12T12:18:27.350Z,29.96
2022-09-12T12:19:28.822Z,29.98
2022-09-12T12:20:30.294Z,30.00
2022-09-12T12:21:34.695Z,29.95
2022-09-12T12:22:36.260Z,29.93
2022-09-12T12:23:37.702Z,29.87
2022-09-12T12:24:55.723Z,29.82
2022-09-12T12:25:57.919Z,29.72
2022-09-12T12:27:00.424Z,29.68
2022-09-12T12:28:02.122Z,29.62
2022-09-12T12:29:03.707Z,29.65
2022-09-12T12:30:08.667Z,29.70
2022-09-12T12:31:10.622Z,29.69
2022-09-12T12:32:12.990Z,29.71
2022-09-12T12:33:14.480Z,29.71
2022-09-12T12:34:34.714Z,29.67
2022-09-12T12:35:38.903Z,29.59
2022-09-12T12:36:40.975Z,29.57
2022-09-12T12:37:42.406Z,29.57
2022-09-12T12:38:44.393Z,29.58
2022-09-12T12:39:47.984Z,29.59
2022-09-12T12:40:50.475Z,29.64
2022-09-12T12:41:51.953Z,29.67
2022-09-12T12:42:56.397Z,29.71
2022-09-12T12:43:57.852Z,29.73
2022-09-12T12:45:03.723Z,29.74
2022-09-12T12:46:05.693Z,29.67
2022-09-12T12:47:33.186Z,29.67
2022-09-12T12:48:36.279Z,29.62
2022-09-12T12:49:37.723Z,29.61
2022-09-12T12:50:39.440Z,29.55
2022-09-12T12:51:43.783Z,29.53
2022-09-12T12:52:54.422Z,29.49
2022-09-12T12:53:55.928Z,29.41
2022-09-12T12:54:57.648Z,29.35
2022-09-12T12:55:59.123Z,29.31
2022-09-12T12:57:06.214Z,29.13
2022-09-12T12:58:08.064Z,29.07
2022-09-12T12:59:20.070Z,29.01
2022-09-12T13:00:24.415Z,28.98
2022-09-12T13:01:25.936Z,28.89
2022-09-12T13:02:37.454Z,28.85
2022-09-12T13:03:40.963Z,28.73
2022-09-12T13:04:42.442Z,28.77
2022-09-12T13:05:44.958Z,28.84
2022-09-12T13:06:47.116Z,28.90
2022-09-12T13:07:52.515Z,28.99
2022-09-12T13:08:59.830Z,29.06
2022-09-12T13:10:01.335Z,29.12
2022-09-12T13:11:05.063Z,29.20
2022-09-12T13:12:08.170Z,29.28
2022-09-12T13:13:09.745Z,29.35
2022-09-12T13:14:46.918Z,29.43
2022-09-12T13:15:49.194Z,29.50
2022-09-12T13:16:54.422Z,29.53
2022-09-12T13:17:58.230Z,29.55
2022-09-12T13:19:03.654Z,29.48
2022-09-12T13:20:26.660Z,29.41
2022-09-12T13:21:29.074Z,29.39
2022-09-12T13:22:38.226Z,29.41
2022-09-12T13:23:39.727Z,29.46
2022-09-12T13:24:48.899Z,29.51
2022-09-12T13:25:54.144Z,29.53
2022-09-12T13:26:57.614Z,29.57
2022-09-12T13:28:04.962Z,29.64
2022-09-12T13:29:13.022Z,29.66
2022-09-12T13:30:14.675Z,29.69
2022-09-12T13:31:16.156Z,29.59
2022-09-12T13:32:17.839Z,29.55
2022-09-12T13:33:31.112Z,29.56
2022-09-12T13:34:37.407Z,29.60
2022-09-12T13:35:38.966Z,29.55
2022-09-12T13:36:46.440Z,29.57
2022-09-12T13:37:51.440Z,29.55
2022-09-12T13:39:11.862Z,29.51
2022-09-12T13:40:31.980Z,29.40
2022-09-12T13:41:41.264Z,29.41
2022-09-12T13:42:45.086Z,29.41
2022-09-12T13:43:49.430Z,29.43
2022-09-12T13:44:51.674Z,29.45
2022-09-12T13:45:53.135Z,29.51
2022-09-12T13:46:54.899Z,29.53
2022-09-12T13:47:58.821Z,29.56
2022-09-12T13:49:00.911Z,29.47
2022-09-12T13:50:03.082Z,29.44
2022-09-12T13:51:05.754Z,29.30